EST,Max TemperatureF,Mean TemperatureF,Min TemperatureF,Max Dew PointF,MeanDew PointF,Min DewpointF,Max Humidity, Mean Humidity, Min Humidity, Max Sea Level PressureIn, Mean Sea Level PressureIn, Min Sea Level PressureIn, Max VisibilityMiles, Mean VisibilityMiles, Min VisibilityMiles, Max Wind SpeedMPH, Mean Wind SpeedMPH, Max Gust SpeedMPH,PrecipitationIn, CloudCover, Events, WindDirDegrees
2013-2-1,75,68,61,56,51,46,64,57,49,30.25,30.20,30.14,10,10,10,18,14,26,0.00,2,,31
2013-2-2,76,70,63,58,54,50,73,58,43,30.24,30.17,30.12,10,10,10,17,11,24,0.00,1,,46
2013-2-3,74,70,66,58,53,38,73,53,32,30.18,30.11,30.07,10,10,10,16,8,23,0.00,2,,1
2013-2-4,73,68,62,53,49,45,60,49,37,30.14,30.08,30.03,10,10,10,15,9,23,0.00,0,,49
2013-2-5,80,72,63,64,60,54,78,66,54,30.08,30.04,30.01,10,10,10,10,5,14,0.00,2,,75
2013-2-6,82,75,67,65,63,61,87,71,54,30.09,30.05,30.01,10,10,10,12,6,15,0.00,4,,91
2013-2-7,82,76,69,66,63,61,84,68,51,30.07,30.02,29.96,10,10,9,10,5,15,0.00,0,,121
2013-2-8,82,77,71,69,67,63,87,75,62,30.06,30.01,29.95,10,10,10,12,6,17,0.00,1,,272
2013-2-9,81,75,68,67,63,59,78,68,58,30.14,30.09,30.04,10,10,10,16,9,22,0.00,2,,56
2013-2-10,81,77,73,63,61,59,68,60,51,30.22,30.16,30.12,10,10,10,15,10,25,0.00,1,,101
2013-2-11,83,78,73,66,65,63,74,66,58,30.20,30.14,30.11,10,10,10,15,9,23,0.00,3,,116
2013-2-12,84,79,74,70,68,65,82,73,63,30.11,30.06,29.99,10,10,10,13,7,18,0.00,3,,145
2013-2-13,86,81,75,72,70,68,87,74,61,30.03,29.99,29.94,10,9,8,9,5,15,0.00,1,,165
2013-2-14,87,78,68,72,69,64,87,74,61,30.01,29.97,29.92,10,9,2,26,6,45,0.41,3,Rain,189
2013-2-15,77,72,67,68,65,62,90,82,74,30.01,29.97,29.93,10,9,3,17,8,23,0.39,8,Rain,40
2013-2-16,74,70,65,63,56,46,78,66,53,30.10,29.95,29.89,10,8,2,23,13,35,0.32,7,Rain,315
2013-2-17,65,59,52,51,37,28,67,51,35,30.30,30.22,30.09,10,10,10,24,12,35,0.00,2,,8
2013-2-18,73,64,54,52,46,33,64,54,43,30.29,30.23,30.17,10,10,10,17,11,24,0.00,2,,64
2013-2-19,80,73,66,65,62,54,87,70,53,30.18,30.13,30.09,10,10,2,12,6,17,0.43,6,Rain,104
2013-2-20,78,72,65,66,64,62,93,79,64,30.12,30.06,30.00,10,9,1,17,7,13,0.26,4,Rain,50
2013-2-21,82,76,70,67,65,63,90,74,58,30.08,30.03,30.00,10,10,10,10,7,16,0.00,1,,95
2013-2-22,84,79,74,69,68,67,84,75,65,30.09,30.03,30.00,10,10,10,12,7,18,0.00,2,,123
2013-2-23,85,81,76,72,70,68,87,76,65,30.03,29.99,29.94,10,10,9,13,6,21,0.00,2,,147
2013-2-24,85,79,73,73,71,69,87,76,65,30.02,29.96,29.92,10,9,5,8,3,10,0.00,1,,149
2013-2-25,85,81,77,72,71,68,82,72,61,29.91,29.86,29.82,10,9,8,13,7,20,0.00,3,,148
2013-2-26,85,81,77,73,71,68,85,75,65,29.93,29.87,29.81,10,10,9,13,8,21,0.00,3,,178
2013-2-27,83,79,74,73,69,67,85,75,65,29.98,29.93,29.88,10,10,9,13,5,17,T,6,Rain,313
2013-2-28,75,70,65,68,57,44,84,60,35,30.01,29.96,29.92,10,10,6,14,7,22,0.03,7,Rain,340